sensor_id;sensor_type;location;lat;lon;timestamp;P1;durP1;ratioP1;P2;durP2;ratioP2
72261;SDS011;60173;52.112;8.648;2023-10-31T00:00:09;8.85;;;6.43;;
72261;SDS011;60173;52.112;8.648;2023-10-31T00:02:36;10.90;;;6.20;;
72261;SDS011;60173;52.112;8.648;2023-10-31T00:05:02;7.95;;;5.40;;
72261;SDS011;60173;52.112;8.648;2023-10-31T00:07:29;9.20;;;5.53;;
72261;SDS011;60173;52.112;8.648;2023-10-31T00:09:56;7.55;;;4.72;;
72261;SDS011;60173;52.112;8.648;2023-10-31T00:12:22;6.88;;;4.22;;
72261;SDS011;60173;52.112;8.648;2023-10-31T00:14:48;5.28;;;3.80;;
72261;SDS011;60173;52.112;8.648;2023-10-31T00:17:15;4.72;;;3.10;;
72261;SDS011;60173;52.112;8.648;2023-10-31T00:19:41;4.93;;;2.53;;
72261;SDS011;60173;52.112;8.648;2023-10-31T00:22:08;5.38;;;2.95;;
72261;SDS011;60173;52.112;8.648;2023-10-31T00:24:34;5.72;;;3.10;;
72261;SDS011;60173;52.112;8.648;2023-10-31T00:27:01;3.78;;;2.97;;
72261;SDS011;60173;52.112;8.648;2023-10-31T00:29:27;3.85;;;3.00;;
72261;SDS011;60173;52.112;8.648;2023-10-31T00:31:54;4.50;;;2.97;;
72261;SDS011;60173;52.112;8.648;2023-10-31T00:34:20;8.95;;;3.35;;
72261;SDS011;60173;52.112;8.648;2023-10-31T00:36:47;4.82;;;3.40;;
72261;SDS011;60173;52.112;8.648;2023-10-31T00:39:13;3.92;;;2.88;;
72261;SDS011;60173;52.112;8.648;2023-10-31T00:41:43;3.95;;;2.88;;
72261;SDS011;60173;52.112;8.648;2023-10-31T00:44:10;5.88;;;3.45;;
72261;SDS011;60173;52.112;8.648;2023-10-31T00:46:36;4.28;;;3.03;;
72261;SDS011;60173;52.112;8.648;2023-10-31T00:49:03;3.97;;;3.58;;
72261;SDS011;60173;52.112;8.648;2023-10-31T00:51:29;5.68;;;3.97;;
72261;SDS011;60173;52.112;8.648;2023-10-31T00:53:56;5.90;;;3.55;;
72261;SDS011;60173;52.112;8.648;2023-10-31T00:56:22;4.53;;;3.85;;
72261;SDS011;60173;52.112;8.648;2023-10-31T00:58:49;5.97;;;3.70;;
72261;SDS011;60173;52.112;8.648;2023-10-31T01:01:15;5.05;;;3.63;;
72261;SDS011;60173;52.112;8.648;2023-10-31T01:03:42;7.35;;;4.82;;
72261;SDS011;60173;52.112;8.648;2023-10-31T01:06:08;4.97;;;3.35;;
72261;SDS011;60173;52.112;8.648;2023-10-31T01:08:35;4.22;;;3.80;;
72261;SDS011;60173;52.112;8.648;2023-10-31T01:11:01;6.88;;;4.20;;
72261;SDS011;60173;52.112;8.648;2023-10-31T01:13:28;5.15;;;4.32;;
72261;SDS011;60173;52.112;8.648;2023-10-31T01:15:54;6.93;;;4.28;;
72261;SDS011;60173;52.112;8.648;2023-10-31T01:18:21;5.78;;;3.92;;
72261;SDS011;60173;52.112;8.648;2023-10-31T01:20:47;5.30;;;3.63;;
72261;SDS011;60173;52.112;8.648;2023-10-31T01:23:14;7.05;;;3.90;;
72261;SDS011;60173;52.112;8.648;2023-10-31T01:25:40;5.28;;;3.30;;
72261;SDS011;60173;52.112;8.648;2023-10-31T01:28:07;4.97;;;3.80;;
72261;SDS011;60173;52.112;8.648;2023-10-31T01:30:33;6.78;;;4.00;;
72261;SDS011;60173;52.112;8.648;2023-10-31T01:33:00;5.35;;;3.38;;
72261;SDS011;60173;52.112;8.648;2023-10-31T01:35:26;7.65;;;3.65;;
72261;SDS011;60173;52.112;8.648;2023-10-31T01:37:53;8.30;;;4.00;;
72261;SDS011;60173;52.112;8.648;2023-10-31T01:40:19;6.32;;;4.18;;
72261;SDS011;60173;52.112;8.648;2023-10-31T01:42:46;4.72;;;3.88;;
72261;SDS011;60173;52.112;8.648;2023-10-31T01:45:12;5.03;;;4.00;;
72261;SDS011;60173;52.112;8.648;2023-10-31T01:47:39;5.93;;;4.10;;
72261;SDS011;60173;52.112;8.648;2023-10-31T01:50:06;7.20;;;3.50;;
72261;SDS011;60173;52.112;8.648;2023-10-31T01:52:33;4.80;;;3.20;;
72261;SDS011;60173;52.112;8.648;2023-10-31T01:55:00;5.50;;;3.55;;
72261;SDS011;60173;52.112;8.648;2023-10-31T01:57:28;4.60;;;4.10;;
72261;SDS011;60173;52.112;8.648;2023-10-31T01:59:55;9.95;;;4.43;;
72261;SDS011;60173;52.112;8.648;2023-10-31T02:02:22;6.97;;;4.22;;
72261;SDS011;60173;52.112;8.648;2023-10-31T02:04:50;6.53;;;3.88;;
72261;SDS011;60173;52.112;8.648;2023-10-31T02:07:17;8.40;;;4.63;;
72261;SDS011;60173;52.112;8.648;2023-10-31T02:09:43;6.35;;;5.45;;
72261;SDS011;60173;52.112;8.648;2023-10-31T02:12:10;6.68;;;5.70;;
72261;SDS011;60173;52.112;8.648;2023-10-31T02:14:36;7.22;;;5.90;;
72261;SDS011;60173;52.112;8.648;2023-10-31T02:17:03;8.27;;;7.00;;
72261;SDS011;60173;52.112;8.648;2023-10-31T02:19:29;7.72;;;6.57;;
72261;SDS011;60173;52.112;8.648;2023-10-31T02:21:56;7.88;;;7.03;;
72261;SDS011;60173;52.112;8.648;2023-10-31T02:24:22;8.80;;;7.90;;
72261;SDS011;60173;52.112;8.648;2023-10-31T02:26:49;9.45;;;8.35;;
72261;SDS011;60173;52.112;8.648;2023-10-31T02:29:15;12.40;;;8.88;;
72261;SDS011;60173;52.112;8.648;2023-10-31T02:31:42;13.27;;;9.82;;
72261;SDS011;60173;52.112;8.648;2023-10-31T02:34:08;12.38;;;11.15;;
72261;SDS011;60173;52.112;8.648;2023-10-31T02:36:35;12.38;;;11.15;;
72261;SDS011;60173;52.112;8.648;2023-10-31T02:39:01;13.43;;;10.60;;
72261;SDS011;60173;52.112;8.648;2023-10-31T02:41:28;11.80;;;8.68;;
72261;SDS011;60173;52.112;8.648;2023-10-31T02:43:54;12.00;;;9.27;;
72261;SDS011;60173;52.112;8.648;2023-10-31T02:46:21;8.82;;;7.97;;
72261;SDS011;60173;52.112;8.648;2023-10-31T02:48:47;9.52;;;8.55;;
72261;SDS011;60173;52.112;8.648;2023-10-31T02:51:14;9.25;;;6.75;;
72261;SDS011;60173;52.112;8.648;2023-10-31T02:53:40;6.32;;;5.72;;
72261;SDS011;60173;52.112;8.648;2023-10-31T02:56:07;7.07;;;5.70;;
72261;SDS011;60173;52.112;8.648;2023-10-31T02:58:33;5.30;;;4.80;;
72261;SDS011;60173;52.112;8.648;2023-10-31T03:01:00;4.65;;;4.18;;
72261;SDS011;60173;52.112;8.648;2023-10-31T03:03:26;5.95;;;3.95;;
72261;SDS011;60173;52.112;8.648;2023-10-31T03:05:53;5.18;;;4.20;;
72261;SDS011;60173;52.112;8.648;2023-10-31T03:08:21;5.28;;;3.30;;
72261;SDS011;60173;52.112;8.648;2023-10-31T03:10:48;3.67;;;3.15;;
72261;SDS011;60173;52.112;8.648;2023-10-31T03:13:16;3.83;;;3.20;;
72261;SDS011;60173;52.112;8.648;2023-10-31T03:15:43;7.80;;;2.90;;
72261;SDS011;60173;52.112;8.648;2023-10-31T03:18:10;3.28;;;2.67;;
72261;SDS011;60173;52.112;8.648;2023-10-31T03:20:36;5.38;;;2.40;;
72261;SDS011;60173;52.112;8.648;2023-10-31T03:23:03;3.42;;;2.15;;
72261;SDS011;60173;52.112;8.648;2023-10-31T03:25:29;3.47;;;1.85;;
72261;SDS011;60173;52.112;8.648;2023-10-31T03:27:56;2.47;;;1.50;;
72261;SDS011;60173;52.112;8.648;2023-10-31T03:30:22;1.60;;;1.50;;
72261;SDS011;60173;52.112;8.648;2023-10-31T03:32:49;1.50;;;1.40;;
72261;SDS011;60173;52.112;8.648;2023-10-31T03:35:15;0.90;;;0.80;;
72261;SDS011;60173;52.112;8.648;2023-10-31T03:37:42;1.95;;;0.50;;
72261;SDS011;60173;52.112;8.648;2023-10-31T03:40:08;1.80;;;0.70;;
72261;SDS011;60173;52.112;8.648;2023-10-31T03:42:35;0.93;;;0.57;;
72261;SDS011;60173;52.112;8.648;2023-10-31T03:45:02;1.02;;;0.50;;
72261;SDS011;60173;52.112;8.648;2023-10-31T03:47:28;0.65;;;0.55;;
72261;SDS011;60173;52.112;8.648;2023-10-31T03:49:55;0.73;;;0.60;;
72261;SDS011;60173;52.112;8.648;2023-10-31T03:52:22;0.40;;;0.40;;
72261;SDS011;60173;52.112;8.648;2023-10-31T03:54:48;0.50;;;0.40;;
72261;SDS011;60173;52.112;8.648;2023-10-31T03:57:15;1.27;;;0.40;;
72261;SDS011;60173;52.112;8.648;2023-10-31T03:59:41;1.80;;;0.75;;
72261;SDS011;60173;52.112;8.648;2023-10-31T04:02:08;1.65;;;0.35;;
72261;SDS011;60173;52.112;8.648;2023-10-31T04:04:34;1.20;;;0.52;;
72261;SDS011;60173;52.112;8.648;2023-10-31T04:07:01;1.40;;;0.52;;
72261;SDS011;60173;52.112;8.648;2023-10-31T04:09:27;0.38;;;0.38;;
72261;SDS011;60173;52.112;8.648;2023-10-31T04:11:53;0.90;;;0.55;;
72261;SDS011;60173;52.112;8.648;2023-10-31T04:14:20;0.80;;;0.60;;
72261;SDS011;60173;52.112;8.648;2023-10-31T04:16:47;0.90;;;0.60;;
72261;SDS011;60173;52.112;8.648;2023-10-31T04:19:13;0.95;;;0.70;;
72261;SDS011;60173;52.112;8.648;2023-10-31T04:21:40;1.95;;;0.63;;
72261;SDS011;60173;52.112;8.648;2023-10-31T04:24:06;2.05;;;0.75;;
72261;SDS011;60173;52.112;8.648;2023-10-31T04:26:33;1.63;;;0.88;;
72261;SDS011;60173;52.112;8.648;2023-10-31T04:28:59;1.20;;;1.00;;
72261;SDS011;60173;52.112;8.648;2023-10-31T04:31:26;3.10;;;1.38;;
72261;SDS011;60173;52.112;8.648;2023-10-31T04:34:06;2.03;;;1.10;;
72261;SDS011;60173;52.112;8.648;2023-10-31T04:36:33;6.55;;;1.30;;
72261;SDS011;60173;52.112;8.648;2023-10-31T04:39:00;3.97;;;1.30;;
72261;SDS011;60173;52.112;8.648;2023-10-31T04:41:26;3.08;;;1.00;;
72261;SDS011;60173;52.112;8.648;2023-10-31T04:43:53;2.53;;;1.30;;
72261;SDS011;60173;52.112;8.648;2023-10-31T04:46:19;3.80;;;1.45;;
72261;SDS011;60173;52.112;8.648;2023-10-31T04:48:46;3.95;;;1.55;;
72261;SDS011;60173;52.112;8.648;2023-10-31T04:51:12;4.38;;;2.10;;
72261;SDS011;60173;52.112;8.648;2023-10-31T04:53:39;3.97;;;2.30;;
72261;SDS011;60173;52.112;8.648;2023-10-31T04:56:11;5.80;;;2.47;;
72261;SDS011;60173;52.112;8.648;2023-10-31T04:58:38;3.15;;;2.50;;
72261;SDS011;60173;52.112;8.648;2023-10-31T05:01:08;6.78;;;2.92;;
72261;SDS011;60173;52.112;8.648;2023-10-31T05:03:35;6.38;;;3.72;;
72261;SDS011;60173;52.112;8.648;2023-10-31T05:06:02;6.13;;;3.20;;
72261;SDS011;60173;52.112;8.648;2023-10-31T05:08:29;5.38;;;3.10;;
72261;SDS011;60173;52.112;8.648;2023-10-31T05:10:56;7.50;;;3.80;;
72261;SDS011;60173;52.112;8.648;2023-10-31T05:13:23;7.80;;;3.33;;
72261;SDS011;60173;52.112;8.648;2023-10-31T05:15:50;7.43;;;4.20;;
72261;SDS011;60173;52.112;8.648;2023-10-31T05:18:17;7.97;;;3.70;;
72261;SDS011;60173;52.112;8.648;2023-10-31T05:20:43;4.93;;;3.60;;
72261;SDS011;60173;52.112;8.648;2023-10-31T05:23:10;9.75;;;4.43;;
72261;SDS011;60173;52.112;8.648;2023-10-31T05:25:36;8.80;;;4.43;;
72261;SDS011;60173;52.112;8.648;2023-10-31T05:28:03;8.27;;;4.85;;
72261;SDS011;60173;52.112;8.648;2023-10-31T05:30:30;8.10;;;4.40;;
72261;SDS011;60173;52.112;8.648;2023-10-31T05:32:57;7.85;;;5.53;;
72261;SDS011;60173;52.112;8.648;2023-10-31T05:35:24;7.35;;;5.05;;
72261;SDS011;60173;52.112;8.648;2023-10-31T05:37:50;6.90;;;5.40;;
72261;SDS011;60173;52.112;8.648;2023-10-31T05:40:17;10.75;;;5.57;;
72261;SDS011;60173;52.112;8.648;2023-10-31T05:42:43;8.20;;;5.57;;
72261;SDS011;60173;52.112;8.648;2023-10-31T05:45:10;12.48;;;5.32;;
72261;SDS011;60173;52.112;8.648;2023-10-31T05:47:36;8.55;;;5.47;;
72261;SDS011;60173;52.112;8.648;2023-10-31T05:50:03;9.93;;;5.88;;
72261;SDS011;60173;52.112;8.648;2023-10-31T05:52:30;7.47;;;5.70;;
72261;SDS011;60173;52.112;8.648;2023-10-31T05:54:56;9.15;;;5.40;;
72261;SDS011;60173;52.112;8.648;2023-10-31T05:57:22;10.93;;;5.20;;
72261;SDS011;60173;52.112;8.648;2023-10-31T05:59:49;9.32;;;6.22;;
72261;SDS011;60173;52.112;8.648;2023-10-31T06:02:15;14.32;;;5.97;;
72261;SDS011;60173;52.112;8.648;2023-10-31T06:04:42;9.63;;;6.82;;
72261;SDS011;60173;52.112;8.648;2023-10-31T06:07:10;10.02;;;7.18;;
72261;SDS011;60173;52.112;8.648;2023-10-31T06:09:37;10.63;;;7.43;;
72261;SDS011;60173;52.112;8.648;2023-10-31T06:12:03;13.77;;;7.78;;
72261;SDS011;60173;52.112;8.648;2023-10-31T06:14:30;10.55;;;7.18;;
72261;SDS011;60173;52.112;8.648;2023-10-31T06:16:56;14.18;;;9.13;;
72261;SDS011;60173;52.112;8.648;2023-10-31T06:19:23;11.02;;;8.10;;
72261;SDS011;60173;52.112;8.648;2023-10-31T06:21:49;13.70;;;8.23;;
72261;SDS011;60173;52.112;8.648;2023-10-31T06:24:16;13.52;;;8.55;;
72261;SDS011;60173;52.112;8.648;2023-10-31T06:26:42;12.82;;;8.73;;
72261;SDS011;60173;52.112;8.648;2023-10-31T06:29:09;14.73;;;9.90;;
72261;SDS011;60173;52.112;8.648;2023-10-31T06:31:42;14.25;;;10.23;;
72261;SDS011;60173;52.112;8.648;2023-10-31T06:34:09;19.42;;;12.02;;
72261;SDS011;60173;52.112;8.648;2023-10-31T06:36:35;19.63;;;11.98;;
72261;SDS011;60173;52.112;8.648;2023-10-31T06:39:02;21.08;;;13.43;;
72261;SDS011;60173;52.112;8.648;2023-10-31T06:41:28;19.77;;;14.32;;
72261;SDS011;60173;52.112;8.648;2023-10-31T06:43:55;21.67;;;14.80;;
72261;SDS011;60173;52.112;8.648;2023-10-31T06:46:21;26.92;;;15.60;;
72261;SDS011;60173;52.112;8.648;2023-10-31T06:48:48;27.30;;;16.05;;
72261;SDS011;60173;52.112;8.648;2023-10-31T06:51:14;29.50;;;17.85;;
72261;SDS011;60173;52.112;8.648;2023-10-31T06:53:40;28.40;;;15.95;;
72261;SDS011;60173;52.112;8.648;2023-10-31T06:56:07;24.23;;;16.50;;
72261;SDS011;60173;52.112;8.648;2023-10-31T06:58:33;28.35;;;17.20;;
72261;SDS011;60173;52.112;8.648;2023-10-31T07:01:00;29.67;;;16.58;;
72261;SDS011;60173;52.112;8.648;2023-10-31T07:03:26;21.85;;;15.27;;
72261;SDS011;60173;52.112;8.648;2023-10-31T07:05:53;22.88;;;15.77;;
72261;SDS011;60173;52.112;8.648;2023-10-31T07:08:19;22.02;;;14.27;;
72261;SDS011;60173;52.112;8.648;2023-10-31T07:10:46;24.73;;;14.43;;
72261;SDS011;60173;52.112;8.648;2023-10-31T07:13:12;19.85;;;12.20;;
72261;SDS011;60173;52.112;8.648;2023-10-31T07:15:39;22.10;;;11.55;;
72261;SDS011;60173;52.112;8.648;2023-10-31T07:18:05;15.68;;;11.23;;
72261;SDS011;60173;52.112;8.648;2023-10-31T07:20:32;9.55;;;7.18;;
72261;SDS011;60173;52.112;8.648;2023-10-31T07:22:59;9.15;;;5.13;;
72261;SDS011;60173;52.112;8.648;2023-10-31T07:25:25;8.10;;;5.10;;
72261;SDS011;60173;52.112;8.648;2023-10-31T07:27:52;5.47;;;3.40;;
72261;SDS011;60173;52.112;8.648;2023-10-31T07:30:18;5.82;;;3.67;;
72261;SDS011;60173;52.112;8.648;2023-10-31T07:32:45;4.20;;;3.10;;
72261;SDS011;60173;52.112;8.648;2023-10-31T07:35:11;5.18;;;3.22;;
72261;SDS011;60173;52.112;8.648;2023-10-31T07:37:38;3.80;;;3.00;;
72261;SDS011;60173;52.112;8.648;2023-10-31T07:40:04;4.97;;;3.40;;
72261;SDS011;60173;52.112;8.648;2023-10-31T07:42:31;6.47;;;2.97;;
72261;SDS011;60173;52.112;8.648;2023-10-31T07:44:58;5.20;;;3.28;;
72261;SDS011;60173;52.112;8.648;2023-10-31T07:47:24;4.03;;;3.00;;
72261;SDS011;60173;52.112;8.648;2023-10-31T07:49:51;3.05;;;1.98;;
72261;SDS011;60173;52.112;8.648;2023-10-31T07:52:17;2.60;;;1.50;;
72261;SDS011;60173;52.112;8.648;2023-10-31T07:54:44;3.03;;;1.70;;
72261;SDS011;60173;52.112;8.648;2023-10-31T07:57:10;1.70;;;1.40;;
72261;SDS011;60173;52.112;8.648;2023-10-31T07:59:37;5.00;;;1.58;;
72261;SDS011;60173;52.112;8.648;2023-10-31T08:02:03;1.92;;;1.40;;
72261;SDS011;60173;52.112;8.648;2023-10-31T08:04:30;2.03;;;1.42;;
72261;SDS011;60173;52.112;8.648;2023-10-31T08:06:57;2.78;;;1.40;;
72261;SDS011;60173;52.112;8.648;2023-10-31T08:09:23;1.33;;;1.05;;
72261;SDS011;60173;52.112;8.648;2023-10-31T08:11:50;2.22;;;1.35;;
72261;SDS011;60173;52.112;8.648;2023-10-31T08:14:16;1.95;;;1.38;;
72261;SDS011;60173;52.112;8.648;2023-10-31T08:16:43;1.35;;;1.15;;
72261;SDS011;60173;52.112;8.648;2023-10-31T08:19:10;2.55;;;1.30;;
72261;SDS011;60173;52.112;8.648;2023-10-31T08:21:36;2.22;;;1.40;;
72261;SDS011;60173;52.112;8.648;2023-10-31T08:24:03;2.30;;;1.27;;
72261;SDS011;60173;52.112;8.648;2023-10-31T08:26:30;3.10;;;1.35;;
72261;SDS011;60173;52.112;8.648;2023-10-31T08:28:57;1.60;;;1.40;;
72261;SDS011;60173;52.112;8.648;2023-10-31T08:31:24;2.42;;;1.42;;
72261;SDS011;60173;52.112;8.648;2023-10-31T08:33:50;1.60;;;1.33;;
72261;SDS011;60173;52.112;8.648;2023-10-31T08:36:17;2.85;;;1.55;;
72261;SDS011;60173;52.112;8.648;2023-10-31T08:38:43;2.10;;;1.20;;
72261;SDS011;60173;52.112;8.648;2023-10-31T08:41:10;1.48;;;1.38;;
72261;SDS011;60173;52.112;8.648;2023-10-31T08:43:36;1.88;;;1.38;;
72261;SDS011;60173;52.112;8.648;2023-10-31T08:46:03;1.83;;;1.30;;
72261;SDS011;60173;52.112;8.648;2023-10-31T08:48:29;2.50;;;1.40;;
72261;SDS011;60173;52.112;8.648;2023-10-31T08:50:56;2.80;;;1.40;;
72261;SDS011;60173;52.112;8.648;2023-10-31T08:53:22;1.58;;;1.45;;
72261;SDS011;60173;52.112;8.648;2023-10-31T08:55:49;1.42;;;1.25;;
72261;SDS011;60173;52.112;8.648;2023-10-31T08:58:15;1.85;;;1.50;;
72261;SDS011;60173;52.112;8.648;2023-10-31T09:00:42;2.08;;;1.35;;
72261;SDS011;60173;52.112;8.648;2023-10-31T09:03:08;2.88;;;1.35;;
72261;SDS011;60173;52.112;8.648;2023-10-31T09:05:36;1.27;;;1.17;;
72261;SDS011;60173;52.112;8.648;2023-10-31T09:08:02;1.83;;;1.27;;
72261;SDS011;60173;52.112;8.648;2023-10-31T09:10:29;1.17;;;1.00;;
72261;SDS011;60173;52.112;8.648;2023-10-31T09:12:55;1.42;;;1.00;;
72261;SDS011;60173;52.112;8.648;2023-10-31T09:15:22;2.55;;;1.10;;
72261;SDS011;60173;52.112;8.648;2023-10-31T09:17:48;1.52;;;0.88;;
72261;SDS011;60173;52.112;8.648;2023-10-31T09:20:16;1.55;;;1.30;;
72261;SDS011;60173;52.112;8.648;2023-10-31T09:22:43;6.70;;;1.65;;
72261;SDS011;60173;52.112;8.648;2023-10-31T09:25:09;1.70;;;1.42;;
72261;SDS011;60173;52.112;8.648;2023-10-31T09:27:36;3.33;;;1.60;;
72261;SDS011;60173;52.112;8.648;2023-10-31T09:30:04;3.67;;;1.60;;
72261;SDS011;60173;52.112;8.648;2023-10-31T09:32:31;2.45;;;1.70;;
72261;SDS011;60173;52.112;8.648;2023-10-31T09:34:57;2.53;;;1.80;;
72261;SDS011;60173;52.112;8.648;2023-10-31T09:37:24;3.30;;;2.10;;
72261;SDS011;60173;52.112;8.648;2023-10-31T09:39:50;2.95;;;2.10;;
72261;SDS011;60173;52.112;8.648;2023-10-31T09:42:17;3.08;;;2.40;;
72261;SDS011;60173;52.112;8.648;2023-10-31T09:44:44;4.28;;;2.38;;
72261;SDS011;60173;52.112;8.648;2023-10-31T09:47:10;5.10;;;3.22;;
72261;SDS011;60173;52.112;8.648;2023-10-31T09:49:38;4.72;;;2.90;;
72261;SDS011;60173;52.112;8.648;2023-10-31T09:52:04;4.50;;;3.08;;
72261;SDS011;60173;52.112;8.648;2023-10-31T09:54:31;5.53;;;3.50;;
72261;SDS011;60173;52.112;8.648;2023-10-31T09:56:59;7.22;;;3.30;;
72261;SDS011;60173;52.112;8.648;2023-10-31T09:59:25;4.55;;;3.33;;
72261;SDS011;60173;52.112;8.648;2023-10-31T10:01:52;4.35;;;3.30;;
72261;SDS011;60173;52.112;8.648;2023-10-31T10:04:18;4.40;;;2.95;;
72261;SDS011;60173;52.112;8.648;2023-10-31T10:06:49;6.00;;;3.42;;
72261;SDS011;60173;52.112;8.648;2023-10-31T10:09:26;4.07;;;3.15;;
72261;SDS011;60173;52.112;8.648;2023-10-31T10:11:53;3.88;;;3.40;;
72261;SDS011;60173;52.112;8.648;2023-10-31T10:14:24;7.18;;;4.20;;
72261;SDS011;60173;52.112;8.648;2023-10-31T10:16:52;6.13;;;4.15;;
72261;SDS011;60173;52.112;8.648;2023-10-31T10:19:22;9.25;;;5.10;;
72261;SDS011;60173;52.112;8.648;2023-10-31T10:24:20;8.55;;;4.80;;
72261;SDS011;60173;52.112;8.648;2023-10-31T10:26:47;6.95;;;5.30;;
72261;SDS011;60173;52.112;8.648;2023-10-31T10:29:15;10.90;;;5.50;;
72261;SDS011;60173;52.112;8.648;2023-10-31T10:31:42;8.75;;;6.13;;
72261;SDS011;60173;52.112;8.648;2023-10-31T10:34:08;10.57;;;6.38;;
72261;SDS011;60173;52.112;8.648;2023-10-31T10:36:35;11.80;;;6.97;;
72261;SDS011;60173;52.112;8.648;2023-10-31T10:39:02;10.18;;;6.80;;
72261;SDS011;60173;52.112;8.648;2023-10-31T10:41:28;12.80;;;7.85;;
72261;SDS011;60173;52.112;8.648;2023-10-31T10:43:56;12.75;;;7.85;;
72261;SDS011;60173;52.112;8.648;2023-10-31T10:46:30;11.50;;;7.72;;
72261;SDS011;60173;52.112;8.648;2023-10-31T10:49:00;14.00;;;8.68;;
72261;SDS011;60173;52.112;8.648;2023-10-31T10:51:35;12.48;;;8.52;;
72261;SDS011;60173;52.112;8.648;2023-10-31T10:54:19;16.38;;;9.23;;
72261;SDS011;60173;52.112;8.648;2023-10-31T10:56:55;12.77;;;8.57;;
72261;SDS011;60173;52.112;8.648;2023-10-31T10:59:38;15.23;;;9.32;;
72261;SDS011;60173;52.112;8.648;2023-10-31T11:02:07;14.43;;;9.93;;
72261;SDS011;60173;52.112;8.648;2023-10-31T11:04:34;16.40;;;10.35;;
72261;SDS011;60173;52.112;8.648;2023-10-31T11:07:01;15.77;;;9.77;;
72261;SDS011;60173;52.112;8.648;2023-10-31T11:09:31;14.88;;;10.07;;
72261;SDS011;60173;52.112;8.648;2023-10-31T11:11:58;13.15;;;8.85;;
72261;SDS011;60173;52.112;8.648;2023-10-31T11:14:25;18.10;;;9.77;;
72261;SDS011;60173;52.112;8.648;2023-10-31T11:16:53;15.20;;;10.57;;
72261;SDS011;60173;52.112;8.648;2023-10-31T11:19:22;17.48;;;10.63;;
72261;SDS011;60173;52.112;8.648;2023-10-31T11:22:00;14.85;;;9.93;;
72261;SDS011;60173;52.112;8.648;2023-10-31T11:24:31;16.30;;;10.52;;
72261;SDS011;60173;52.112;8.648;2023-10-31T11:26:59;27.67;;;11.80;;
72261;SDS011;60173;52.112;8.648;2023-10-31T11:29:26;13.73;;;10.48;;
72261;SDS011;60173;52.112;8.648;2023-10-31T11:31:56;18.85;;;11.05;;
72261;SDS011;60173;52.112;8.648;2023-10-31T11:34:23;13.77;;;10.38;;
72261;SDS011;60173;52.112;8.648;2023-10-31T11:36:52;13.75;;;10.15;;
72261;SDS011;60173;52.112;8.648;2023-10-31T11:39:20;13.40;;;9.27;;
72261;SDS011;60173;52.112;8.648;2023-10-31T11:41:50;11.95;;;8.60;;
72261;SDS011;60173;52.112;8.648;2023-10-31T11:44:23;10.70;;;8.80;;
72261;SDS011;60173;52.112;8.648;2023-10-31T11:46:52;12.98;;;9.32;;
72261;SDS011;60173;52.112;8.648;2023-10-31T11:52:19;13.45;;;9.95;;
72261;SDS011;60173;52.112;8.648;2023-10-31T11:54:45;11.38;;;9.20;;
72261;SDS011;60173;52.112;8.648;2023-10-31T11:57:25;11.95;;;9.27;;
72261;SDS011;60173;52.112;8.648;2023-10-31T11:59:52;10.73;;;8.95;;
72261;SDS011;60173;52.112;8.648;2023-10-31T12:02:19;12.95;;;9.38;;
72261;SDS011;60173;52.112;8.648;2023-10-31T12:04:46;14.55;;;9.57;;
72261;SDS011;60173;52.112;8.648;2023-10-31T12:07:12;12.05;;;9.93;;
72261;SDS011;60173;52.112;8.648;2023-10-31T12:09:48;13.23;;;10.05;;
72261;SDS011;60173;52.112;8.648;2023-10-31T12:12:14;10.48;;;8.80;;
72261;SDS011;60173;52.112;8.648;2023-10-31T12:14:41;11.27;;;9.55;;
72261;SDS011;60173;52.112;8.648;2023-10-31T12:17:07;13.70;;;9.75;;
72261;SDS011;60173;52.112;8.648;2023-10-31T12:19:34;12.55;;;9.18;;
72261;SDS011;60173;52.112;8.648;2023-10-31T12:22:00;13.15;;;9.25;;
72261;SDS011;60173;52.112;8.648;2023-10-31T12:24:27;14.95;;;9.90;;
72261;SDS011;60173;52.112;8.648;2023-10-31T12:26:53;13.00;;;10.00;;
72261;SDS011;60173;52.112;8.648;2023-10-31T12:29:20;14.38;;;10.38;;
72261;SDS011;60173;52.112;8.648;2023-10-31T12:31:48;14.90;;;9.93;;
72261;SDS011;60173;52.112;8.648;2023-10-31T12:34:16;16.05;;;10.43;;
72261;SDS011;60173;52.112;8.648;2023-10-31T12:36:45;14.77;;;10.90;;
72261;SDS011;60173;52.112;8.648;2023-10-31T12:39:13;15.20;;;10.27;;
72261;SDS011;60173;52.112;8.648;2023-10-31T12:41:40;16.05;;;10.80;;
72261;SDS011;60173;52.112;8.648;2023-10-31T12:44:07;14.27;;;10.38;;
72261;SDS011;60173;52.112;8.648;2023-10-31T12:46:34;15.25;;;9.65;;
72261;SDS011;60173;52.112;8.648;2023-10-31T12:49:01;13.05;;;9.90;;
72261;SDS011;60173;52.112;8.648;2023-10-31T12:51:28;12.60;;;9.43;;
72261;SDS011;60173;52.112;8.648;2023-10-31T12:53:54;12.45;;;9.95;;
72261;SDS011;60173;52.112;8.648;2023-10-31T12:59:07;12.73;;;9.05;;
72261;SDS011;60173;52.112;8.648;2023-10-31T13:01:35;13.25;;;9.70;;
72261;SDS011;60173;52.112;8.648;2023-10-31T13:04:03;10.88;;;9.05;;
72261;SDS011;60173;52.112;8.648;2023-10-31T13:06:30;12.38;;;8.93;;
72261;SDS011;60173;52.112;8.648;2023-10-31T13:08:57;12.70;;;9.55;;
72261;SDS011;60173;52.112;8.648;2023-10-31T13:11:28;12.85;;;9.30;;
72261;SDS011;60173;52.112;8.648;2023-10-31T13:13:55;13.15;;;9.13;;
72261;SDS011;60173;52.112;8.648;2023-10-31T13:16:22;16.20;;;9.52;;
72261;SDS011;60173;52.112;8.648;2023-10-31T13:18:49;12.63;;;8.73;;
72261;SDS011;60173;52.112;8.648;2023-10-31T13:21:15;14.48;;;9.20;;
72261;SDS011;60173;52.112;8.648;2023-10-31T13:23:42;10.95;;;8.50;;
72261;SDS011;60173;52.112;8.648;2023-10-31T13:26:09;12.15;;;9.30;;
72261;SDS011;60173;52.112;8.648;2023-10-31T13:28:35;15.73;;;10.07;;
72261;SDS011;60173;52.112;8.648;2023-10-31T13:31:02;11.18;;;8.93;;
72261;SDS011;60173;52.112;8.648;2023-10-31T13:33:28;12.73;;;9.52;;
72261;SDS011;60173;52.112;8.648;2023-10-31T13:35:55;13.57;;;9.40;;
72261;SDS011;60173;52.112;8.648;2023-10-31T13:38:21;12.65;;;9.18;;
72261;SDS011;60173;52.112;8.648;2023-10-31T13:40:48;11.88;;;9.23;;
72261;SDS011;60173;52.112;8.648;2023-10-31T13:43:14;12.73;;;9.02;;
72261;SDS011;60173;52.112;8.648;2023-10-31T13:45:41;12.05;;;9.32;;
72261;SDS011;60173;52.112;8.648;2023-10-31T13:48:07;12.00;;;8.40;;
72261;SDS011;60173;52.112;8.648;2023-10-31T13:50:34;15.55;;;9.75;;
72261;SDS011;60173;52.112;8.648;2023-10-31T13:53:00;13.77;;;9.05;;
72261;SDS011;60173;52.112;8.648;2023-10-31T13:55:27;12.05;;;9.15;;
72261;SDS011;60173;52.112;8.648;2023-10-31T13:57:53;20.70;;;9.98;;
72261;SDS011;60173;52.112;8.648;2023-10-31T14:00:20;15.95;;;8.88;;
72261;SDS011;60173;52.112;8.648;2023-10-31T14:02:46;13.57;;;9.48;;
72261;SDS011;60173;52.112;8.648;2023-10-31T14:05:13;15.70;;;10.38;;
72261;SDS011;60173;52.112;8.648;2023-10-31T14:07:40;13.13;;;9.45;;
72261;SDS011;60173;52.112;8.648;2023-10-31T14:10:06;14.98;;;10.73;;
72261;SDS011;60173;52.112;8.648;2023-10-31T14:12:33;15.43;;;10.70;;
72261;SDS011;60173;52.112;8.648;2023-10-31T14:15:00;14.15;;;9.80;;
72261;SDS011;60173;52.112;8.648;2023-10-31T14:17:26;15.80;;;11.05;;
72261;SDS011;60173;52.112;8.648;2023-10-31T14:19:53;18.30;;;12.40;;
72261;SDS011;60173;52.112;8.648;2023-10-31T14:22:19;16.45;;;11.40;;
72261;SDS011;60173;52.112;8.648;2023-10-31T14:24:45;17.73;;;11.27;;
72261;SDS011;60173;52.112;8.648;2023-10-31T14:27:12;17.85;;;10.63;;
72261;SDS011;60173;52.112;8.648;2023-10-31T14:29:38;19.98;;;12.10;;
72261;SDS011;60173;52.112;8.648;2023-10-31T14:32:06;19.25;;;11.95;;
72261;SDS011;60173;52.112;8.648;2023-10-31T14:34:35;18.48;;;11.63;;
72261;SDS011;60173;52.112;8.648;2023-10-31T14:37:01;20.23;;;11.85;;
72261;SDS011;60173;52.112;8.648;2023-10-31T14:39:28;15.82;;;11.63;;
72261;SDS011;60173;52.112;8.648;2023-10-31T14:41:55;13.38;;;11.38;;
72261;SDS011;60173;52.112;8.648;2023-10-31T14:44:21;19.08;;;12.10;;
72261;SDS011;60173;52.112;8.648;2023-10-31T14:46:48;17.83;;;12.02;;